Time;durP1;ratioP1;P1;durP2;ratioP2;P2;SDS_P1;SDS_P2;PMS_P1;PMS_P2;Temp;Humidity;BMP_temperature;BMP_pressure;BME280_temperature;BME280_humidity;BME280_pressure;Samples;Min_cycle;Max_cycle;Signal;HPM_P1;HPM_P2
2023/01/26 00:02:40;;;;;;;6.88;3.42;;;;;;;;;;20832985;28;20496;-60
2023/01/26 00:12:42;;;;;;;5.63;2.40;;;;;;;;;;20832720;28;20156;-60
2023/01/26 00:22:44;;;;;;;4.88;2.33;;;;;;;;;;20832100;28;20505;-60
2023/01/26 00:32:46;;;;;;;5.88;1.20;;;;;;;;;;20831637;28;20132;-61
2023/01/26 00:42:48;;;;;;;3.13;0.90;;;;;;;;;;20830525;28;20046;-60
2023/01/26 00:52:52;;;;;;;5.13;1.65;;;;;;;;;;20829611;28;20095;-61
2023/01/26 01:02:55;;;;;;;5.22;2.38;;;;;;;;;;20829776;28;20053;-60
2023/01/26 01:12:57;;;;;;;3.15;1.95;;;;;;;;;;20829889;28;20571;-60
2023/01/26 01:22:59;;;;;;;5.47;2.03;;;;;;;;;;20832794;28;20041;-60
2023/01/26 01:33:01;;;;;;;3.35;1.67;;;;;;;;;;20844672;28;20049;-61
2023/01/26 01:43:09;;;;;;;3.55;1.90;;;;;;;;;;20844073;28;20076;-61
2023/01/26 01:53:13;;;;;;;5.32;2.83;;;;;;;;;;20842184;28;20066;-61
2023/01/26 02:03:20;;;;;;;7.13;3.08;;;;;;;;;;20843242;28;20103;-59
2023/01/26 02:13:22;;;;;;;5.65;2.90;;;;;;;;;;20842214;28;20061;-60
2023/01/26 02:23:33;;;;;;;9.00;3.05;;;;;;;;;;20841592;28;20048;-61
2023/01/26 02:33:36;;;;;;;6.00;2.83;;;;;;;;;;20841525;28;20476;-60
2023/01/26 02:43:39;;;;;;;4.70;2.80;;;;;;;;;;20840498;28;20052;-60
2023/01/26 02:53:41;;;;;;;7.30;3.30;;;;;;;;;;20838401;28;20131;-60
2023/01/26 03:03:45;;;;;;;5.90;3.47;;;;;;;;;;20838059;28;20049;-60
2023/01/26 03:13:48;;;;;;;7.03;3.38;;;;;;;;;;20835440;28;20104;-60
2023/01/26 03:34:24;;;;;;;7.72;3.88;;;;;;;;;;20835205;28;20405;-60
2023/01/26 04:25:52;;;;;;;6.75;3.85;;;;;;;;;;20831101;28;20050;-60
2023/01/26 04:35:54;;;;;;;6.05;3.65;;;;;;;;;;20831409;28;20104;-60
2023/01/26 04:46:01;;;;;;;9.88;3.80;;;;;;;;;;20831272;28;20433;-60
2023/01/26 04:56:04;;;;;;;6.72;3.83;;;;;;;;;;20833638;28;20053;-59
2023/01/26 05:06:06;;;;;;;6.07;2.95;;;;;;;;;;20846722;28;20054;-60
2023/01/26 05:16:12;;;;;;;7.85;3.40;;;;;;;;;;20845899;28;20065;-60
2023/01/26 05:26:14;;;;;;;8.75;3.78;;;;;;;;;;20845426;28;20081;-59
2023/01/26 05:36:16;;;;;;;9.40;4.25;;;;;;;;;;20845404;28;20049;-61
2023/01/26 05:46:18;;;;;;;7.82;4.00;;;;;;;;;;20844123;28;20046;-60
2023/01/26 05:56:20;;;;;;;11.35;3.95;;;;;;;;;;20842764;28;20102;-59
2023/01/26 06:06:22;;;;;;;7.32;3.83;;;;;;;;;;20841694;28;20506;-61
2023/01/26 06:16:24;;;;;;;11.38;5.35;;;;;;;;;;20841067;28;20080;-61
2023/01/26 06:26:26;;;;;;;9.68;4.18;;;;;;;;;;20841350;28;20050;-60
2023/01/26 06:36:28;;;;;;;8.88;4.30;;;;;;;;;;20839793;28;20054;-60
2023/01/26 06:46:30;;;;;;;9.40;4.22;;;;;;;;;;20839036;28;20049;-61
2023/01/26 06:56:32;;;;;;;8.18;4.82;;;;;;;;;;20837538;28;20049;-60
2023/01/26 07:06:35;;;;;;;9.82;4.53;;;;;;;;;;20837689;28;20470;-60
2023/01/26 07:16:37;;;;;;;10.07;5.07;;;;;;;;;;20836837;28;20053;-61
2023/01/26 07:26:39;;;;;;;14.98;5.38;;;;;;;;;;20834507;28;20050;-61
2023/01/26 07:36:41;;;;;;;13.77;5.35;;;;;;;;;;20834547;28;20128;-61
2023/01/26 07:46:43;;;;;;;17.23;5.97;;;;;;;;;;20833785;28;20049;-59
2023/01/26 07:56:45;;;;;;;16.20;5.97;;;;;;;;;;20833225;28;20469;-60
2023/01/26 08:06:47;;;;;;;17.73;6.85;;;;;;;;;;20833135;28;20049;-61
2023/01/26 08:16:49;;;;;;;23.05;8.55;;;;;;;;;;20834441;28;20049;-62
2023/01/26 08:26:50;;;;;;;17.17;7.25;;;;;;;;;;20830990;28;20489;-61
2023/01/26 08:36:51;;;;;;;20.95;6.93;;;;;;;;;;20830527;28;20406;-61
2023/01/26 08:46:53;;;;;;;21.38;7.68;;;;;;;;;;20830094;28;20212;-60
2023/01/26 08:56:54;;;;;;;16.60;7.57;;;;;;;;;;20829650;28;20045;-60
2023/01/26 09:06:55;;;;;;;21.00;6.70;;;;;;;;;;20829453;28;20060;-60
2023/01/26 09:16:56;;;;;;;14.27;5.95;;;;;;;;;;20829031;28;20124;-60
2023/01/26 09:26:57;;;;;;;13.13;4.95;;;;;;;;;;20829914;28;20056;-62
2023/01/26 09:36:58;;;;;;;12.77;4.88;;;;;;;;;;20828688;28;20046;-61
2023/01/26 09:47:13;;;;;;;9.40;4.63;;;;;;;;;;20835971;28;20466;-60
2023/01/26 09:57:17;;;;;;;8.82;4.75;;;;;;;;;;20842389;28;20123;-60
2023/01/26 10:07:18;;;;;;;14.68;6.25;;;;;;;;;;20841787;28;20558;-60
2023/01/26 10:17:34;;;;;;;7.90;4.20;;;;;;;;;;20840881;28;20405;-61
2023/01/26 10:27:37;;;;;;;7.80;2.75;;;;;;;;;;20839571;28;20095;-64
2023/01/26 10:37:38;;;;;;;5.00;2.00;;;;;;;;;;20840690;28;20049;-66
2023/01/26 10:47:41;;;;;;;4.95;2.00;;;;;;;;;;20838203;28;20069;-73
2023/01/26 10:57:43;;;;;;;6.50;2.30;;;;;;;;;;20838398;28;20053;-68
2023/01/26 11:07:47;;;;;;;6.30;2.33;;;;;;;;;;20838120;28;20133;-65
2023/01/26 11:17:52;;;;;;;5.63;3.00;;;;;;;;;;20836886;28;20057;-64
2023/01/26 11:28:14;;;;;;;7.18;2.25;;;;;;;;;;20836447;28;20049;-64
2023/01/26 11:38:22;;;;;;;8.13;2.55;;;;;;;;;;20833584;28;20468;-63
2023/01/26 11:48:47;;;;;;;8.85;3.00;;;;;;;;;;20790122;28;20058;-67
2023/01/26 11:58:57;;;;;;;2.30;1.20;;;;;;;;;;20752377;28;20116;-63
2023/01/26 12:09:04;;;;;;;8.57;2.27;;;;;;;;;;20804425;28;20504;-60
2023/01/26 12:19:21;;;;;;;5.28;1.30;;;;;;;;;;20832550;28;20046;-68
2023/01/26 12:29:27;;;;;;;3.55;1.00;;;;;;;;;;20831588;28;20045;-65
2023/01/26 12:39:29;;;;;;;2.92;1.10;;;;;;;;;;20831352;28;20501;-63
2023/01/26 12:49:35;;;;;;;2.30;1.10;;;;;;;;;;20830043;28;20053;-60
2023/01/26 12:59:39;;;;;;;2.58;0.90;;;;;;;;;;20830272;28;20046;-62
2023/01/26 13:10:00;;;;;;;4.97;0.98;;;;;;;;;;20829784;28;20060;-65
2023/01/26 13:20:15;;;;;;;4.18;1.10;;;;;;;;;;20836645;28;20057;-63
2023/01/26 13:30:23;;;;;;;2.55;0.95;;;;;;;;;;20846012;28;20096;-66
2023/01/26 13:40:25;;;;;;;2.20;1.17;;;;;;;;;;20844873;28;20132;-66
2023/01/26 13:50:32;;;;;;;2.13;1.15;;;;;;;;;;20843020;28;20069;-66
2023/01/26 14:00:34;;;;;;;1.60;0.90;;;;;;;;;;20843511;28;20041;-64
2023/01/26 14:10:41;;;;;;;2.15;0.93;;;;;;;;;;20842215;28;20061;-61
2023/01/26 14:20:44;;;;;;;3.00;0.90;;;;;;;;;;20840496;28;20045;-60
2023/01/26 14:30:56;;;;;;;1.77;0.82;;;;;;;;;;20840048;28;20045;-66
2023/01/26 14:41:00;;;;;;;2.72;1.10;;;;;;;;;;20840488;28;20449;-66
2023/01/26 14:51:05;;;;;;;3.95;1.20;;;;;;;;;;20838037;28;20413;-60
2023/01/26 15:01:07;;;;;;;2.90;1.05;;;;;;;;;;20838049;28;20049;-61
2023/01/26 15:21:33;;;;;;;1.60;0.80;;;;;;;;;;20836715;28;20513;-61
2023/01/26 15:31:37;;;;;;;2.17;0.77;;;;;;;;;;20835528;28;20045;-60
2023/01/26 15:41:43;;;;;;;1.77;0.95;;;;;;;;;;20834460;28;20442;-61
2023/01/26 15:51:45;;;;;;;3.50;0.70;;;;;;;;;;20833534;28;20569;-60
2023/01/26 16:01:46;;;;;;;1.02;0.63;;;;;;;;;;20833757;28;20174;-60
2023/01/26 16:11:52;;;;;;;2.85;0.73;;;;;;;;;;20834132;28;20055;-59
2023/01/26 16:21:55;;;;;;;2.00;0.68;;;;;;;;;;20832356;28;20128;-62
2023/01/26 16:31:59;;;;;;;0.93;0.55;;;;;;;;;;20831745;28;20046;-60
2023/01/26 16:42:01;;;;;;;3.53;0.80;;;;;;;;;;20830522;28;20049;-62
2023/01/26 16:52:02;;;;;;;2.65;1.00;;;;;;;;;;20834413;28;20057;-61
2023/01/26 17:02:04;;;;;;;2.40;1.00;;;;;;;;;;20858247;28;20114;-62
2023/01/26 17:12:06;;;;;;;2.15;0.80;;;;;;;;;;20856209;28;20103;-63
2023/01/26 17:22:08;;;;;;;2.75;1.10;;;;;;;;;;20857812;28;20478;-61
2023/01/26 17:32:10;;;;;;;2.00;1.05;;;;;;;;;;20855940;28;20054;-63
2023/01/26 17:42:12;;;;;;;2.78;1.00;;;;;;;;;;20855503;28;20053;-62
2023/01/26 17:52:14;;;;;;;2.42;1.08;;;;;;;;;;20855087;28;20060;-63
2023/01/26 18:02:16;;;;;;;2.03;0.82;;;;;;;;;;20855854;28;20053;-60
2023/01/26 18:12:18;;;;;;;1.67;0.88;;;;;;;;;;20840646;28;20402;-64
2023/01/26 18:22:21;;;;;;;4.43;1.20;;;;;;;;;;20839428;28;20049;-66
2023/01/26 18:32:23;;;;;;;3.28;1.20;;;;;;;;;;20839524;28;20053;-66
2023/01/26 18:42:25;;;;;;;3.78;1.27;;;;;;;;;;20838164;28;20042;-65
2023/01/26 18:52:28;;;;;;;2.40;1.35;;;;;;;;;;20837757;28;20064;-66
2023/01/26 19:02:32;;;;;;;4.88;1.45;;;;;;;;;;20837995;28;20053;-61
2023/01/26 19:12:34;;;;;;;2.97;1.00;;;;;;;;;;20836260;28;20060;-64
2023/01/26 19:22:36;;;;;;;4.05;1.10;;;;;;;;;;20835419;28;20049;-64
2023/01/26 19:33:22;;;;;;;3.65;1.45;;;;;;;;;;20835119;28;20050;-60
2023/01/26 19:43:00;;;;;;;6.28;2.20;;;;;;;;;;20835324;28;20409;-61
2023/01/26 19:53:02;;;;;;;5.38;2.38;;;;;;;;;;20832904;28;20421;-61
2023/01/26 20:03:04;;;;;;;14.50;5.35;;;;;;;;;;20832619;28;20381;-61
2023/01/26 20:13:07;;;;;;;19.88;8.05;;;;;;;;;;20832105;28;20050;-61
2023/01/26 20:23:09;;;;;;;7.38;3.75;;;;;;;;;;20832157;28;20064;-60
2023/01/26 20:33:12;;;;;;;14.02;5.63;;;;;;;;;;20830914;28;20053;-60
2023/01/26 20:43:14;;;;;;;6.32;2.70;;;;;;;;;;20830351;28;20132;-60
2023/01/26 20:53:16;;;;;;;11.52;4.15;;;;;;;;;;20829652;28;20057;-60
2023/01/26 21:03:18;;;;;;;9.38;4.28;;;;;;;;;;20830071;28;20505;-60
2023/01/26 21:13:20;;;;;;;7.90;3.83;;;;;;;;;;20827929;28;20088;-60
2023/01/26 21:23:23;;;;;;;12.65;5.57;;;;;;;;;;20828721;28;20054;-60
2023/01/26 21:33:24;;;;;;;10.15;6.07;;;;;;;;;;20829334;28;20485;-60
2023/01/26 21:43:27;;;;;;;8.55;4.25;;;;;;;;;;20837020;28;20042;-60
2023/01/26 21:53:29;;;;;;;21.70;9.35;;;;;;;;;;20842572;28;20057;-61
2023/01/26 22:03:32;;;;;;;14.02;4.57;;;;;;;;;;20842912;28;20075;-61
2023/01/26 22:13:35;;;;;;;10.30;5.80;;;;;;;;;;20842132;28;20049;-61
2023/01/26 22:23:39;;;;;;;9.98;5.38;;;;;;;;;;20842406;28;20041;-59
2023/01/26 22:33:43;;;;;;;14.38;6.18;;;;;;;;;;20840399;28;20140;-60
2023/01/26 22:43:46;;;;;;;8.73;3.80;;;;;;;;;;20838432;28;20077;-60
2023/01/26 22:53:51;;;;;;;9.02;3.67;;;;;;;;;;20838226;28;20050;-60
2023/01/26 23:03:54;;;;;;;7.68;3.70;;;;;;;;;;20838471;28;20061;-60
2023/01/26 23:13:57;;;;;;;9.15;3.55;;;;;;;;;;20838336;28;20136;-61
2023/01/26 23:23:59;;;;;;;7.78;4.07;;;;;;;;;;20837089;28;20052;-59
2023/01/26 23:34:00;;;;;;;9.60;4.32;;;;;;;;;;20836157;28;20054;-60
2023/01/26 23:44:04;;;;;;;11.48;4.53;;;;;;;;;;20834656;28;20148;-60
2023/01/26 23:54:06;;;;;;;15.65;6.07;;;;;;;;;;20835102;28;20139;-59
